sensor_id;sensor_type;location;lat;lon;timestamp;temperature;humidity
15152;DHT22;7676;50.900;6.234;2023-07-09T00:14:56;27.20;99.90
15152;DHT22;7676;50.900;6.234;2023-07-09T00:29:59;27.10;99.90
15152;DHT22;7676;50.900;6.234;2023-07-09T00:45:07;27.20;99.90
15152;DHT22;7676;50.900;6.234;2023-07-09T01:00:17;26.70;99.90
15152;DHT22;7676;50.900;6.234;2023-07-09T01:15:21;26.80;99.90
15152;DHT22;7676;50.900;6.234;2023-07-09T01:30:38;26.70;99.90
15152;DHT22;7676;50.900;6.234;2023-07-09T01:45:41;26.70;99.90
15152;DHT22;7676;50.900;6.234;2023-07-09T02:00:44;26.40;99.90
15152;DHT22;7676;50.900;6.234;2023-07-09T02:15:47;26.20;99.90
15152;DHT22;7676;50.900;6.234;2023-07-09T02:30:51;26.40;99.90
15152;DHT22;7676;50.900;6.234;2023-07-09T02:45:55;26.40;99.90
15152;DHT22;7676;50.900;6.234;2023-07-09T03:00:57;26.40;99.90
15152;DHT22;7676;50.900;6.234;2023-07-09T03:16:00;25.70;99.90
15152;DHT22;7676;50.900;6.234;2023-07-09T03:31:03;25.60;99.90
15152;DHT22;7676;50.900;6.234;2023-07-09T03:46:06;25.50;99.90
15152;DHT22;7676;50.900;6.234;2023-07-09T04:01:08;25.50;99.90
15152;DHT22;7676;50.900;6.234;2023-07-09T04:16:11;24.90;99.90
15152;DHT22;7676;50.900;6.234;2023-07-09T04:31:14;25.20;99.90
15152;DHT22;7676;50.900;6.234;2023-07-09T04:46:16;26.10;99.90
15152;DHT22;7676;50.900;6.234;2023-07-09T05:01:19;27.80;99.90
15152;DHT22;7676;50.900;6.234;2023-07-09T05:16:21;28.40;99.90
15152;DHT22;7676;50.900;6.234;2023-07-09T05:31:24;30.00;99.90
15152;DHT22;7676;50.900;6.234;2023-07-09T05:46:28;30.00;99.90
15152;DHT22;7676;50.900;6.234;2023-07-09T06:01:35;30.60;99.90
15152;DHT22;7676;50.900;6.234;2023-07-09T06:16:38;28.50;99.90
15152;DHT22;7676;50.900;6.234;2023-07-09T06:31:41;27.50;99.90
15152;DHT22;7676;50.900;6.234;2023-07-09T06:46:45;29.10;99.90
15152;DHT22;7676;50.900;6.234;2023-07-09T07:01:48;29.60;99.90
15152;DHT22;7676;50.900;6.234;2023-07-09T07:16:51;29.30;99.90
15152;DHT22;7676;50.900;6.234;2023-07-09T07:31:54;29.90;99.90
15152;DHT22;7676;50.900;6.234;2023-07-09T07:46:59;29.90;99.90
15152;DHT22;7676;50.900;6.234;2023-07-09T08:02:03;30.70;99.90
15152;DHT22;7676;50.900;6.234;2023-07-09T08:17:07;30.80;99.90
15152;DHT22;7676;50.900;6.234;2023-07-09T08:32:11;31.90;99.90
15152;DHT22;7676;50.900;6.234;2023-07-09T08:47:26;32.80;99.90
15152;DHT22;7676;50.900;6.234;2023-07-09T09:02:52;33.90;99.90
15152;DHT22;7676;50.900;6.234;2023-07-09T09:18:25;34.10;99.90
15152;DHT22;7676;50.900;6.234;2023-07-09T09:33:37;35.80;99.30
15152;DHT22;7676;50.900;6.234;2023-07-09T09:48:45;36.10;97.40
15152;DHT22;7676;50.900;6.234;2023-07-09T10:03:51;37.00;92.00
15152;DHT22;7676;50.900;6.234;2023-07-09T10:19:19;37.90;88.10
15152;DHT22;7676;50.900;6.234;2023-07-09T10:34:51;38.40;80.80
15152;DHT22;7676;50.900;6.234;2023-07-09T10:49:59;39.40;70.60
15152;DHT22;7676;50.900;6.234;2023-07-09T11:05:07;39.80;69.20
15152;DHT22;7676;50.900;6.234;2023-07-09T11:20:32;39.50;66.10
15152;DHT22;7676;50.900;6.234;2023-07-09T11:35:48;39.50;64.20
15152;DHT22;7676;50.900;6.234;2023-07-09T11:50:53;39.00;65.40
15152;DHT22;7676;50.900;6.234;2023-07-09T12:06:01;38.80;64.10
15152;DHT22;7676;50.900;6.234;2023-07-09T12:36:11;37.30;70.30
15152;DHT22;7676;50.900;6.234;2023-07-09T12:51:20;37.10;70.40
15152;DHT22;7676;50.900;6.234;2023-07-09T13:06:34;32.80;99.90
15152;DHT22;7676;50.900;6.234;2023-07-09T13:21:38;31.30;99.90
15152;DHT22;7676;50.900;6.234;2023-07-09T13:36:42;31.30;99.90
15152;DHT22;7676;50.900;6.234;2023-07-09T13:51:50;29.80;99.90
15152;DHT22;7676;50.900;6.234;2023-07-09T14:06:52;29.00;99.90
15152;DHT22;7676;50.900;6.234;2023-07-09T14:21:55;25.80;99.90
15152;DHT22;7676;50.900;6.234;2023-07-09T14:36:59;27.40;99.90
15152;DHT22;7676;50.900;6.234;2023-07-09T14:52:02;27.40;99.90
15152;DHT22;7676;50.900;6.234;2023-07-09T15:07:08;27.50;99.90
15152;DHT22;7676;50.900;6.234;2023-07-09T15:22:23;27.70;99.90
15152;DHT22;7676;50.900;6.234;2023-07-09T15:37:28;28.20;99.90
15152;DHT22;7676;50.900;6.234;2023-07-09T15:52:30;26.30;99.90
15152;DHT22;7676;50.900;6.234;2023-07-09T16:07:33;26.00;99.90
15152;DHT22;7676;50.900;6.234;2023-07-09T16:22:36;27.00;99.90
15152;DHT22;7676;50.900;6.234;2023-07-09T16:37:42;27.10;99.90
15152;DHT22;7676;50.900;6.234;2023-07-09T16:52:45;26.70;99.90
15152;DHT22;7676;50.900;6.234;2023-07-09T17:07:48;26.10;99.90
15152;DHT22;7676;50.900;6.234;2023-07-09T17:22:52;25.60;99.90
15152;DHT22;7676;50.900;6.234;2023-07-09T17:37:55;25.40;99.90
15152;DHT22;7676;50.900;6.234;2023-07-09T17:52:58;24.60;99.90
15152;DHT22;7676;50.900;6.234;2023-07-09T18:08:00;24.70;99.90
15152;DHT22;7676;50.900;6.234;2023-07-09T18:23:03;25.30;99.90
15152;DHT22;7676;50.900;6.234;2023-07-09T18:38:09;25.50;99.90
15152;DHT22;7676;50.900;6.234;2023-07-09T18:53:14;26.70;99.90
15152;DHT22;7676;50.900;6.234;2023-07-09T19:08:23;27.00;99.90
15152;DHT22;7676;50.900;6.234;2023-07-09T19:23:26;26.90;99.90
15152;DHT22;7676;50.900;6.234;2023-07-09T19:38:29;26.60;99.90
15152;DHT22;7676;50.900;6.234;2023-07-09T19:53:32;26.60;99.90
15152;DHT22;7676;50.900;6.234;2023-07-09T20:08:34;26.60;99.90
15152;DHT22;7676;50.900;6.234;2023-07-09T20:23:38;26.50;99.90
15152;DHT22;7676;50.900;6.234;2023-07-09T20:38:41;26.70;99.90
15152;DHT22;7676;50.900;6.234;2023-07-09T20:53:43;26.90;99.90
15152;DHT22;7676;50.900;6.234;2023-07-09T21:08:46;26.60;99.90
15152;DHT22;7676;50.900;6.234;2023-07-09T21:23:48;26.60;99.90
15152;DHT22;7676;50.900;6.234;2023-07-09T21:38:51;26.20;99.90
15152;DHT22;7676;50.900;6.234;2023-07-09T21:53:53;25.50;99.90
15152;DHT22;7676;50.900;6.234;2023-07-09T22:09:16;24.70;99.90
15152;DHT22;7676;50.900;6.234;2023-07-09T22:24:19;23.80;99.90
15152;DHT22;7676;50.900;6.234;2023-07-09T22:39:22;24.00;99.90
15152;DHT22;7676;50.900;6.234;2023-07-09T22:54:24;24.60;99.90
15152;DHT22;7676;50.900;6.234;2023-07-09T23:09:27;24.60;99.90
15152;DHT22;7676;50.900;6.234;2023-07-09T23:24:29;24.70;99.90
15152;DHT22;7676;50.900;6.234;2023-07-09T23:39:32;24.80;99.90
15152;DHT22;7676;50.900;6.234;2023-07-09T23:54:34;24.90;99.90
